sensor_id;sensor_type;location;lat;lon;timestamp;pressure;altitude;pressure_sealevel;temperature;humidity
66681;BME280;53575;51.366;12.350;2023-02-22T00:00:25;100412.28;;;7.25;96.11
66681;BME280;53575;51.366;12.350;2023-02-22T00:03:05;100413.03;;;7.13;96.53
66681;BME280;53575;51.366;12.350;2023-02-22T00:05:32;100413.00;;;7.07;96.79
66681;BME280;53575;51.366;12.350;2023-02-22T00:07:57;100406.00;;;7.00;97.67
66681;BME280;53575;51.366;12.350;2023-02-22T00:10:25;100406.88;;;6.99;98.32
66681;BME280;53575;51.366;12.350;2023-02-22T00:12:52;100406.78;;;6.93;98.71
66681;BME280;53575;51.366;12.350;2023-02-22T00:15:20;100402.38;;;6.86;99.27
66681;BME280;53575;51.366;12.350;2023-02-22T00:17:46;100405.94;;;6.91;99.18
66681;BME280;53575;51.366;12.350;2023-02-22T00:20:13;100399.03;;;6.96;100.00
66681;BME280;53575;51.366;12.350;2023-02-22T00:22:43;100397.34;;;7.01;100.00
66681;BME280;53575;51.366;12.350;2023-02-22T00:25:15;100399.78;;;6.84;100.00
66681;BME280;53575;51.366;12.350;2023-02-22T00:27:47;100404.03;;;6.77;100.00
66681;BME280;53575;51.366;12.350;2023-02-22T00:30:22;100397.94;;;6.74;100.00
66681;BME280;53575;51.366;12.350;2023-02-22T00:32:49;100401.44;;;6.76;99.48
66681;BME280;53575;51.366;12.350;2023-02-22T00:35:16;100397.94;;;6.74;99.82
66681;BME280;53575;51.366;12.350;2023-02-22T00:37:42;100395.25;;;6.68;99.91
66681;BME280;53575;51.366;12.350;2023-02-22T00:40:13;100389.97;;;6.60;100.00
66681;BME280;53575;51.366;12.350;2023-02-22T00:42:39;100389.97;;;6.60;100.00
66681;BME280;53575;51.366;12.350;2023-02-22T00:45:05;100386.53;;;6.58;99.66
66681;BME280;53575;51.366;12.350;2023-02-22T00:47:31;100394.25;;;6.53;100.00
66681;BME280;53575;51.366;12.350;2023-02-22T00:49:57;100400.28;;;6.52;100.00
66681;BME280;53575;51.366;12.350;2023-02-22T00:52:23;100388.22;;;6.54;100.00
66681;BME280;53575;51.366;12.350;2023-02-22T00:54:48;100386.44;;;6.49;100.00
66681;BME280;53575;51.366;12.350;2023-02-22T00:57:14;100387.63;;;6.80;100.00
66681;BME280;53575;51.366;12.350;2023-02-22T00:59:39;100386.72;;;6.78;100.00
66681;BME280;53575;51.366;12.350;2023-02-22T01:02:05;100388.53;;;6.85;100.00
66681;BME280;53575;51.366;12.350;2023-02-22T01:04:30;100385.78;;;6.71;100.00
66681;BME280;53575;51.366;12.350;2023-02-22T01:06:55;100389.28;;;6.73;100.00
66681;BME280;53575;51.366;12.350;2023-02-22T01:09:21;100386.81;;;6.86;100.00
66681;BME280;53575;51.366;12.350;2023-02-22T01:11:56;100384.25;;;6.87;100.00
66681;BME280;53575;51.366;12.350;2023-02-22T01:14:23;100387.78;;;6.97;100.00
66681;BME280;53575;51.366;12.350;2023-02-22T01:16:54;100393.00;;;7.00;100.00
66681;BME280;53575;51.366;12.350;2023-02-22T01:19:21;100386.13;;;7.03;100.00
66681;BME280;53575;51.366;12.350;2023-02-22T01:21:47;100386.28;;;7.25;100.00
66681;BME280;53575;51.366;12.350;2023-02-22T01:24:15;100380.16;;;7.14;100.00
66681;BME280;53575;51.366;12.350;2023-02-22T01:26:42;100380.16;;;7.14;100.00
66681;BME280;53575;51.366;12.350;2023-02-22T01:29:11;100381.91;;;7.16;100.00
66681;BME280;53575;51.366;12.350;2023-02-22T01:31:40;100382.75;;;7.14;100.00
66681;BME280;53575;51.366;12.350;2023-02-22T01:34:07;100382.06;;;7.33;100.00
66681;BME280;53575;51.366;12.350;2023-02-22T01:36:33;100376.91;;;7.42;100.00
66681;BME280;53575;51.366;12.350;2023-02-22T01:38:58;100375.88;;;7.20;100.00
66681;BME280;53575;51.366;12.350;2023-02-22T01:41:23;100375.78;;;7.11;100.00
66681;BME280;53575;51.366;12.350;2023-02-22T01:43:49;100372.22;;;7.01;100.00
66681;BME280;53575;51.366;12.350;2023-02-22T01:46:23;100370.50;;;7.02;100.00
66681;BME280;53575;51.366;12.350;2023-02-22T01:51:21;100353.91;;;6.83;100.00
66681;BME280;53575;51.366;12.350;2023-02-22T01:53:58;100357.25;;;6.74;100.00
66681;BME280;53575;51.366;12.350;2023-02-22T01:56:27;100358.13;;;6.75;100.00
66681;BME280;53575;51.366;12.350;2023-02-22T01:59:06;100353.66;;;6.62;100.00
66681;BME280;53575;51.366;12.350;2023-02-22T02:01:34;100354.41;;;6.51;100.00
66681;BME280;53575;51.366;12.350;2023-02-22T02:04:11;100354.41;;;6.50;100.00
66681;BME280;53575;51.366;12.350;2023-02-22T02:06:37;100350.00;;;6.43;100.00
66681;BME280;53575;51.366;12.350;2023-02-22T02:09:42;100353.34;;;6.32;100.00
66681;BME280;53575;51.366;12.350;2023-02-22T02:12:11;100350.59;;;6.22;100.00
66681;BME280;53575;51.366;12.350;2023-02-22T02:14:40;100359.97;;;6.07;100.00
66681;BME280;53575;51.366;12.350;2023-02-22T02:17:09;100352.09;;;6.00;100.00
66681;BME280;53575;51.366;12.350;2023-02-22T02:20:07;100354.59;;;5.95;100.00
66681;BME280;53575;51.366;12.350;2023-02-22T02:26:06;100352.56;;;5.74;100.00
66681;BME280;53575;51.366;12.350;2023-02-22T02:30:44;100348.09;;;5.64;100.00
66681;BME280;53575;51.366;12.350;2023-02-22T02:33:35;100345.38;;;5.56;100.00
66681;BME280;53575;51.366;12.350;2023-02-22T02:36:12;100352.28;;;5.56;100.00
66681;BME280;53575;51.366;12.350;2023-02-22T02:38:54;100347.09;;;5.54;100.00
66681;BME280;53575;51.366;12.350;2023-02-22T02:41:23;100353.03;;;5.49;100.00
66681;BME280;53575;51.366;12.350;2023-02-22T02:43:59;100341.84;;;5.50;100.00
66681;BME280;53575;51.366;12.350;2023-02-22T02:46:37;100333.97;;;5.44;100.00
66681;BME280;53575;51.366;12.350;2023-02-22T02:49:11;100338.19;;;5.35;100.00
66681;BME280;53575;51.366;12.350;2023-02-22T02:51:43;100334.69;;;5.33;100.00
66681;BME280;53575;51.366;12.350;2023-02-22T02:54:12;100337.47;;;5.46;100.00
66681;BME280;53575;51.366;12.350;2023-02-22T02:56:39;100329.00;;;5.57;100.00
66681;BME280;53575;51.366;12.350;2023-02-22T02:59:37;100329.13;;;5.68;100.00
66681;BME280;53575;51.366;12.350;2023-02-22T03:13:01;100319.06;;;5.90;100.00
66681;BME280;53575;51.366;12.350;2023-02-22T03:18:28;100312.28;;;5.98;100.00
66681;BME280;53575;51.366;12.350;2023-02-22T03:21:00;100320.19;;;6.07;100.00
66681;BME280;53575;51.366;12.350;2023-02-22T03:23:44;100315.28;;;6.31;100.00
66681;BME280;53575;51.366;12.350;2023-02-22T03:26:19;100316.19;;;6.35;100.00
66681;BME280;53575;51.366;12.350;2023-02-22T03:28:50;100316.22;;;6.38;100.00
66681;BME280;53575;51.366;12.350;2023-02-22T03:31:39;100305.78;;;6.37;100.00
66681;BME280;53575;51.366;12.350;2023-02-22T03:34:07;100306.66;;;6.34;100.00
66681;BME280;53575;51.366;12.350;2023-02-22T03:36:40;100310.16;;;6.41;100.00
66681;BME280;53575;51.366;12.350;2023-02-22T03:39:12;100308.56;;;6.50;100.00
66681;BME280;53575;51.366;12.350;2023-02-22T03:41:42;100305.13;;;6.53;100.00
66681;BME280;53575;51.366;12.350;2023-02-22T03:44:15;100299.94;;;6.54;100.00
66681;BME280;53575;51.366;12.350;2023-02-22T03:46:45;100305.34;;;6.76;100.00
66681;BME280;53575;51.366;12.350;2023-02-22T03:49:28;100314.97;;;6.88;100.00
66681;BME280;53575;51.366;12.350;2023-02-22T03:51:55;100305.56;;;7.05;100.00
66681;BME280;53575;51.366;12.350;2023-02-22T03:54:20;100308.19;;;7.08;100.00
66681;BME280;53575;51.366;12.350;2023-02-22T03:56:53;100305.56;;;7.05;100.00
66681;BME280;53575;51.366;12.350;2023-02-22T03:59:20;100299.47;;;7.00;100.00
66681;BME280;53575;51.366;12.350;2023-02-22T04:01:54;100300.41;;;7.08;100.00
66681;BME280;53575;51.366;12.350;2023-02-22T04:04:21;100304.72;;;7.04;100.00
66681;BME280;53575;51.366;12.350;2023-02-22T04:06:48;100306.44;;;7.04;100.00
66681;BME280;53575;51.366;12.350;2023-02-22T04:09:15;100302.06;;;6.97;100.00
66681;BME280;53575;51.366;12.350;2023-02-22T04:11:40;100299.41;;;6.94;100.00
66681;BME280;53575;51.366;12.350;2023-02-22T04:14:06;100302.91;;;6.96;100.00
66681;BME280;53575;51.366;12.350;2023-02-22T04:16:31;100302.09;;;7.00;100.00
66681;BME280;53575;51.366;12.350;2023-02-22T04:18:57;100299.47;;;6.98;100.00
66681;BME280;53575;51.366;12.350;2023-02-22T04:21:22;100301.25;;;7.04;100.00
66681;BME280;53575;51.366;12.350;2023-02-22T04:23:48;100304.75;;;7.09;100.00
66681;BME280;53575;51.366;12.350;2023-02-22T04:26:13;100303.88;;;7.08;100.00
66681;BME280;53575;51.366;12.350;2023-02-22T04:28:39;100303.06;;;7.16;100.00
66681;BME280;53575;51.366;12.350;2023-02-22T04:31:04;100305.63;;;7.13;100.00
66681;BME280;53575;51.366;12.350;2023-02-22T04:33:30;100301.31;;;7.12;100.00
66681;BME280;53575;51.366;12.350;2023-02-22T04:35:55;100304.81;;;7.18;100.00
66681;BME280;53575;51.366;12.350;2023-02-22T04:38:22;100290.09;;;7.20;100.00
66681;BME280;53575;51.366;12.350;2023-02-22T04:40:50;100301.38;;;7.19;100.00
66681;BME280;53575;51.366;12.350;2023-02-22T04:43:16;100291.84;;;7.18;100.00
66681;BME280;53575;51.366;12.350;2023-02-22T04:45:42;100290.06;;;7.17;100.00
66681;BME280;53575;51.366;12.350;2023-02-22T04:48:07;100286.59;;;7.14;100.00
66681;BME280;53575;51.366;12.350;2023-02-22T04:50:32;100290.09;;;7.20;100.00
66681;BME280;53575;51.366;12.350;2023-02-22T04:52:58;100279.78;;;7.31;100.00
66681;BME280;53575;51.366;12.350;2023-02-22T04:55:23;100279.81;;;7.40;100.00
66681;BME280;53575;51.366;12.350;2023-02-22T04:57:49;100281.59;;;7.41;100.00
66681;BME280;53575;51.366;12.350;2023-02-22T05:00:16;100273.75;;;7.35;100.00
66681;BME280;53575;51.366;12.350;2023-02-22T05:02:42;100277.25;;;7.43;100.00
66681;BME280;53575;51.366;12.350;2023-02-22T05:05:07;100275.47;;;7.33;100.00
66681;BME280;53575;51.366;12.350;2023-02-22T05:07:33;100278.06;;;7.36;100.00
66681;BME280;53575;51.366;12.350;2023-02-22T05:09:58;100276.41;;;7.47;100.00
66681;BME280;53575;51.366;12.350;2023-02-22T05:12:26;100265.25;;;7.70;100.00
66681;BME280;53575;51.366;12.350;2023-02-22T05:14:52;100265.25;;;7.70;100.00
66681;BME280;53575;51.366;12.350;2023-02-22T05:17:17;100269.59;;;7.63;100.00
66681;BME280;53575;51.366;12.350;2023-02-22T05:19:43;100271.31;;;7.64;100.00
66681;BME280;53575;51.366;12.350;2023-02-22T05:22:08;100268.75;;;7.73;100.00
66681;BME280;53575;51.366;12.350;2023-02-22T05:24:34;100264.44;;;7.75;100.00
66681;BME280;53575;51.366;12.350;2023-02-22T05:26:59;100265.28;;;7.74;100.00
66681;BME280;53575;51.366;12.350;2023-02-22T05:29:25;100267.06;;;7.80;100.00
66681;BME280;53575;51.366;12.350;2023-02-22T05:31:50;100263.56;;;7.72;100.00
66681;BME280;53575;51.366;12.350;2023-02-22T05:34:16;100266.16;;;7.72;100.00
66681;BME280;53575;51.366;12.350;2023-02-22T05:36:41;100263.56;;;7.78;100.00
66681;BME280;53575;51.366;12.350;2023-02-22T05:39:07;100261.84;;;7.80;100.00
66681;BME280;53575;51.366;12.350;2023-02-22T05:41:32;100267.91;;;7.80;100.00
66681;BME280;53575;51.366;12.350;2023-02-22T05:43:58;100264.47;;;7.83;100.00
66681;BME280;53575;51.366;12.350;2023-02-22T05:46:23;100260.16;;;7.88;100.00
66681;BME280;53575;51.366;12.350;2023-02-22T05:48:49;100265.31;;;7.80;100.00
66681;BME280;53575;51.366;12.350;2023-02-22T05:51:14;100267.88;;;7.70;100.00
66681;BME280;53575;51.366;12.350;2023-02-22T05:53:40;100265.28;;;7.73;100.00
66681;BME280;53575;51.366;12.350;2023-02-22T05:56:06;100272.19;;;7.69;100.00
66681;BME280;53575;51.366;12.350;2023-02-22T05:58:32;100262.66;;;7.65;100.00
66681;BME280;53575;51.366;12.350;2023-02-22T06:00:57;100274.72;;;7.54;100.00
66681;BME280;53575;51.366;12.350;2023-02-22T06:03:23;100270.38;;;7.51;100.00
66681;BME280;53575;51.366;12.350;2023-02-22T06:05:48;100277.31;;;7.52;100.00
66681;BME280;53575;51.366;12.350;2023-02-22T06:08:14;100278.19;;;7.53;100.00
66681;BME280;53575;51.366;12.350;2023-02-22T06:10:39;100279.91;;;7.51;100.00
66681;BME280;53575;51.366;12.350;2023-02-22T06:13:05;100272.97;;;7.51;100.00
66681;BME280;53575;51.366;12.350;2023-02-22T06:15:31;100279.91;;;7.49;100.00
66681;BME280;53575;51.366;12.350;2023-02-22T06:17:57;100266.06;;;7.55;100.00
66681;BME280;53575;51.366;12.350;2023-02-22T06:20:25;100275.63;;;7.61;100.00
66681;BME280;53575;51.366;12.350;2023-02-22T06:22:52;100267.03;;;7.77;100.00
66681;BME280;53575;51.366;12.350;2023-02-22T06:25:20;100273.09;;;7.76;100.00
66681;BME280;53575;51.366;12.350;2023-02-22T06:27:48;100274.88;;;7.78;100.00
66681;BME280;53575;51.366;12.350;2023-02-22T06:30:14;100271.41;;;7.87;100.00
66681;BME280;53575;51.366;12.350;2023-02-22T06:32:40;100272.28;;;7.89;100.00
66681;BME280;53575;51.366;12.350;2023-02-22T06:35:06;100273.16;;;7.87;100.00
66681;BME280;53575;51.366;12.350;2023-02-22T06:37:31;100277.47;;;7.89;100.00
66681;BME280;53575;51.366;12.350;2023-02-22T06:39:57;100276.66;;;7.96;100.00
66681;BME280;53575;51.366;12.350;2023-02-22T06:42:22;100284.47;;;7.98;100.00
66681;BME280;53575;51.366;12.350;2023-02-22T06:44:48;100287.09;;;8.04;100.00
66681;BME280;53575;51.366;12.350;2023-02-22T06:47:13;100288.84;;;8.08;100.00
66681;BME280;53575;51.366;12.350;2023-02-22T06:49:39;100287.13;;;8.13;100.00
66681;BME280;53575;51.366;12.350;2023-02-22T06:52:05;100286.31;;;8.25;100.00
66681;BME280;53575;51.366;12.350;2023-02-22T06:54:31;100287.16;;;8.24;100.00
66681;BME280;53575;51.366;12.350;2023-02-22T06:56:56;100284.53;;;8.18;100.00
66681;BME280;53575;51.366;12.350;2023-02-22T06:59:21;100289.75;;;8.24;100.00
66681;BME280;53575;51.366;12.350;2023-02-22T07:01:47;100285.44;;;8.30;100.00
66681;BME280;53575;51.366;12.350;2023-02-22T07:04:13;100290.63;;;8.23;100.00
66681;BME280;53575;51.366;12.350;2023-02-22T07:06:47;100292.38;;;8.25;100.00
66681;BME280;53575;51.366;12.350;2023-02-22T07:09:14;100293.28;;;8.32;100.00
66681;BME280;53575;51.366;12.350;2023-02-22T07:11:39;100292.47;;;8.53;100.00
66681;BME280;53575;51.366;12.350;2023-02-22T07:14:05;100298.53;;;8.53;100.00
66681;BME280;53575;51.366;12.350;2023-02-22T07:16:31;100295.06;;;8.62;100.00
66681;BME280;53575;51.366;12.350;2023-02-22T07:18:58;100294.22;;;8.51;100.00
66681;BME280;53575;51.366;12.350;2023-02-22T07:21:24;100295.09;;;8.59;100.00
66681;BME280;53575;51.366;12.350;2023-02-22T07:23:51;100298.59;;;8.70;100.00
66681;BME280;53575;51.366;12.350;2023-02-22T07:26:18;100298.59;;;8.90;98.27
66681;BME280;53575;51.366;12.350;2023-02-22T07:28:43;100300.34;;;8.94;97.78
66681;BME280;53575;51.366;12.350;2023-02-22T07:31:09;100302.06;;;8.88;97.57
66681;BME280;53575;51.366;12.350;2023-02-22T07:33:34;100294.25;;;8.83;97.73
66681;BME280;53575;51.366;12.350;2023-02-22T07:36:00;100305.53;;;8.85;97.90
66681;BME280;53575;51.366;12.350;2023-02-22T07:38:25;100297.72;;;8.82;97.99
66681;BME280;53575;51.366;12.350;2023-02-22T07:40:51;100302.06;;;8.86;97.95
66681;BME280;53575;51.366;12.350;2023-02-22T07:43:19;100297.72;;;8.87;98.18
66681;BME280;53575;51.366;12.350;2023-02-22T07:45:46;100298.59;;;8.87;97.36
66681;BME280;53575;51.366;12.350;2023-02-22T07:48:12;100295.97;;;8.84;97.62
66681;BME280;53575;51.366;12.350;2023-02-22T07:50:39;100296.84;;;8.92;97.09
66681;BME280;53575;51.366;12.350;2023-02-22T07:53:07;100293.38;;;8.95;96.91
66681;BME280;53575;51.366;12.350;2023-02-22T07:55:35;100295.13;;;8.97;96.64
66681;BME280;53575;51.366;12.350;2023-02-22T07:58:04;100295.13;;;9.05;95.94
66681;BME280;53575;51.366;12.350;2023-02-22T08:00:33;100287.28;;;9.17;95.81
66681;BME280;53575;51.366;12.350;2023-02-22T08:03:00;100287.28;;;9.20;95.80
66681;BME280;53575;51.366;12.350;2023-02-22T08:05:27;100290.78;;;9.09;96.41
66681;BME280;53575;51.366;12.350;2023-02-22T08:07:54;100284.69;;;9.16;95.97
66681;BME280;53575;51.366;12.350;2023-02-22T08:10:21;100280.31;;;9.32;95.40
66681;BME280;53575;51.366;12.350;2023-02-22T08:12:47;100282.94;;;9.28;95.38
66681;BME280;53575;51.366;12.350;2023-02-22T08:15:34;100289.00;;;9.35;94.88
66681;BME280;53575;51.366;12.350;2023-02-22T08:18:02;100288.13;;;9.38;94.97
66681;BME280;53575;51.366;12.350;2023-02-22T08:20:28;100289.84;;;9.56;94.08
66681;BME280;53575;51.366;12.350;2023-02-22T08:22:54;100290.69;;;9.58;93.85
66681;BME280;53575;51.366;12.350;2023-02-22T08:25:22;100293.31;;;9.51;93.58
66681;BME280;53575;51.366;12.350;2023-02-22T08:27:49;100288.09;;;9.59;93.18
66681;BME280;53575;51.366;12.350;2023-02-22T08:30:21;100291.56;;;9.63;93.48
66681;BME280;53575;51.366;12.350;2023-02-22T08:32:48;100281.06;;;9.75;92.62
66681;BME280;53575;51.366;12.350;2023-02-22T08:35:15;100277.59;;;9.71;92.54
66681;BME280;53575;51.366;12.350;2023-02-22T08:37:46;100283.72;;;9.67;91.93
66681;BME280;53575;51.366;12.350;2023-02-22T08:40:13;100288.91;;;9.81;91.18
66681;BME280;53575;51.366;12.350;2023-02-22T08:42:41;100284.50;;;9.88;90.84
66681;BME280;53575;51.366;12.350;2023-02-22T08:45:08;100283.53;;;10.07;90.29
66681;BME280;53575;51.366;12.350;2023-02-22T08:47:34;100286.97;;;10.28;89.14
66681;BME280;53575;51.366;12.350;2023-02-22T08:50:00;100285.16;;;10.37;88.21
66681;BME280;53575;51.366;12.350;2023-02-22T08:52:25;100288.63;;;10.44;86.99
66681;BME280;53575;51.366;12.350;2023-02-22T08:54:50;100274.81;;;10.17;87.56
66681;BME280;53575;51.366;12.350;2023-02-22T08:57:16;100279.25;;;10.01;88.56
66681;BME280;53575;51.366;12.350;2023-02-22T08:59:41;100279.13;;;10.21;88.63
66681;BME280;53575;51.366;12.350;2023-02-22T09:02:18;100286.88;;;10.44;87.84
66681;BME280;53575;51.366;12.350;2023-02-22T09:04:44;100278.19;;;10.38;87.07
66681;BME280;53575;51.366;12.350;2023-02-22T09:07:10;100279.91;;;10.45;87.18
66681;BME280;53575;51.366;12.350;2023-02-22T09:09:36;100285.16;;;10.43;86.59
66681;BME280;53575;51.366;12.350;2023-02-22T09:12:02;100281.66;;;10.46;86.26
66681;BME280;53575;51.366;12.350;2023-02-22T09:14:28;100280.78;;;10.45;85.56
66681;BME280;53575;51.366;12.350;2023-02-22T09:16:53;100284.16;;;10.60;85.84
66681;BME280;53575;51.366;12.350;2023-02-22T09:19:19;100287.56;;;10.71;86.17
66681;BME280;53575;51.366;12.350;2023-02-22T09:21:45;100280.56;;;10.78;85.76
66681;BME280;53575;51.366;12.350;2023-02-22T09:24:16;100283.00;;;11.01;83.52
66681;BME280;53575;51.366;12.350;2023-02-22T09:26:45;100279.41;;;11.09;82.96
66681;BME280;53575;51.366;12.350;2023-02-22T09:29:11;100277.66;;;11.10;82.33
66681;BME280;53575;51.366;12.350;2023-02-22T09:31:38;100282.09;;;11.03;83.04
66681;BME280;53575;51.366;12.350;2023-02-22T09:34:05;100273.19;;;11.24;82.38
66681;BME280;53575;51.366;12.350;2023-02-22T09:36:39;100278.31;;;11.35;82.66
66681;BME280;53575;51.366;12.350;2023-02-22T09:39:04;100272.31;;;11.27;82.71
66681;BME280;53575;51.366;12.350;2023-02-22T09:41:39;100272.22;;;11.34;82.64
66681;BME280;53575;51.366;12.350;2023-02-22T09:44:19;100279.00;;;11.52;81.69
66681;BME280;53575;51.366;12.350;2023-02-22T09:46:48;100270.19;;;11.64;80.51
66681;BME280;53575;51.366;12.350;2023-02-22T09:51:44;100260.44;;;11.74;78.69
66681;BME280;53575;51.366;12.350;2023-02-22T09:57:00;100256.94;;;11.76;78.48
66681;BME280;53575;51.366;12.350;2023-02-22T09:59:30;100249.84;;;11.86;78.40
66681;BME280;53575;51.366;12.350;2023-02-22T10:04:46;100244.59;;;11.89;78.25
66681;BME280;53575;51.366;12.350;2023-02-22T10:07:27;100243.78;;;11.84;78.68
66681;BME280;53575;51.366;12.350;2023-02-22T10:09:54;100241.97;;;11.89;78.27
66681;BME280;53575;51.366;12.350;2023-02-22T10:12:40;100242.66;;;12.02;76.76
66681;BME280;53575;51.366;12.350;2023-02-22T10:23:53;100239.16;;;12.63;74.92
66681;BME280;53575;51.366;12.350;2023-02-22T10:26:40;100237.84;;;12.91;72.60
66681;BME280;53575;51.366;12.350;2023-02-22T10:31:57;100234.91;;;13.08;71.50
66681;BME280;53575;51.366;12.350;2023-02-22T10:34:31;100228.66;;;13.15;71.75
66681;BME280;53575;51.366;12.350;2023-02-22T10:37:18;100224.88;;;13.33;70.61
66681;BME280;53575;51.366;12.350;2023-02-22T10:39:47;100222.09;;;13.41;71.18
66681;BME280;53575;51.366;12.350;2023-02-22T10:42:14;100225.94;;;13.23;70.94
66681;BME280;53575;51.366;12.350;2023-02-22T10:44:40;100218.47;;;13.47;70.44
66681;BME280;53575;51.366;12.350;2023-02-22T10:47:08;100222.91;;;13.45;69.81
66681;BME280;53575;51.366;12.350;2023-02-22T10:49:50;100218.72;;;13.36;70.01
66681;BME280;53575;51.366;12.350;2023-02-22T10:52:32;100217.91;;;13.76;69.48
66681;BME280;53575;51.366;12.350;2023-02-22T10:54:59;100212.53;;;13.82;68.16
66681;BME280;53575;51.366;12.350;2023-02-22T10:57:31;100216.81;;;13.86;67.94
66681;BME280;53575;51.366;12.350;2023-02-22T11:00:21;100217.38;;;14.00;67.69
66681;BME280;53575;51.366;12.350;2023-02-22T11:05:39;100207.06;;;13.91;66.90
66681;BME280;53575;51.366;12.350;2023-02-22T11:08:26;100201.94;;;13.85;67.78
66681;BME280;53575;51.366;12.350;2023-02-22T11:10:54;100206.34;;;14.25;66.31
66681;BME280;53575;51.366;12.350;2023-02-22T11:13:38;100201.31;;;14.14;66.05
66681;BME280;53575;51.366;12.350;2023-02-22T11:16:24;100196.63;;;14.27;65.89
66681;BME280;53575;51.366;12.350;2023-02-22T11:19:11;100203.31;;;14.03;66.46
66681;BME280;53575;51.366;12.350;2023-02-22T11:21:37;100196.50;;;13.94;67.86
66681;BME280;53575;51.366;12.350;2023-02-22T11:24:08;100191.28;;;13.93;67.51
66681;BME280;53575;51.366;12.350;2023-02-22T11:26:37;100196.09;;;14.12;66.43
66681;BME280;53575;51.366;12.350;2023-02-22T11:29:10;100180.66;;;14.36;64.94
66681;BME280;53575;51.366;12.350;2023-02-22T11:31:41;100183.97;;;14.44;64.66
66681;BME280;53575;51.366;12.350;2023-02-22T11:34:27;100183.97;;;14.07;65.99
66681;BME280;53575;51.366;12.350;2023-02-22T11:36:54;100176.59;;;14.23;65.83
66681;BME280;53575;51.366;12.350;2023-02-22T11:41:46;100167.03;;;14.19;66.07
66681;BME280;53575;51.366;12.350;2023-02-22T11:44:31;100160.38;;;14.41;65.41
66681;BME280;53575;51.366;12.350;2023-02-22T11:46:59;100161.78;;;14.19;65.85
66681;BME280;53575;51.366;12.350;2023-02-22T11:49:42;100154.06;;;14.50;65.23
66681;BME280;53575;51.366;12.350;2023-02-22T11:52:26;100154.56;;;14.66;64.94
66681;BME280;53575;51.366;12.350;2023-02-22T12:05:55;100142.41;;;14.94;63.33
66681;BME280;53575;51.366;12.350;2023-02-22T12:11:21;100137.25;;;14.90;62.76
66681;BME280;53575;51.366;12.350;2023-02-22T12:16:55;100140.19;;;14.42;64.16
66681;BME280;53575;51.366;12.350;2023-02-22T12:19:35;100140.56;;;14.28;65.12
66681;BME280;53575;51.366;12.350;2023-02-22T12:22:09;100139.72;;;14.26;65.84
66681;BME280;53575;51.366;12.350;2023-02-22T12:24:41;100137.38;;;14.13;65.94
66681;BME280;53575;51.366;12.350;2023-02-22T12:27:28;100139.97;;;14.52;64.54
66681;BME280;53575;51.366;12.350;2023-02-22T12:32:42;100135.91;;;14.75;64.03
66681;BME280;53575;51.366;12.350;2023-02-22T12:35:24;100137.88;;;14.99;62.35
66681;BME280;53575;51.366;12.350;2023-02-22T12:40:44;100131.28;;;14.83;62.92
66681;BME280;53575;51.366;12.350;2023-02-22T12:43:15;100122.50;;;14.84;62.90
66681;BME280;53575;51.366;12.350;2023-02-22T12:45:52;100120.13;;;14.75;62.83
66681;BME280;53575;51.366;12.350;2023-02-22T12:50:54;100118.72;;;14.94;63.15
66681;BME280;53575;51.366;12.350;2023-02-22T12:53:27;100122.50;;;14.84;63.02
66681;BME280;53575;51.366;12.350;2023-02-22T12:56:33;100115.69;;;14.77;62.44
66681;BME280;53575;51.366;12.350;2023-02-22T12:59:21;100112.84;;;14.84;62.99
66681;BME280;53575;51.366;12.350;2023-02-22T13:01:57;100117.88;;;14.59;63.20
66681;BME280;53575;51.366;12.350;2023-02-22T13:04:24;100114.84;;;14.03;65.55
66681;BME280;53575;51.366;12.350;2023-02-22T13:06:58;100112.66;;;14.22;66.09
66681;BME280;53575;51.366;12.350;2023-02-22T13:14:48;100104.03;;;14.17;65.26
66681;BME280;53575;51.366;12.350;2023-02-22T13:23:13;100098.97;;;14.44;64.67
66681;BME280;53575;51.366;12.350;2023-02-22T13:25:53;100098.16;;;14.06;65.26
66681;BME280;53575;51.366;12.350;2023-02-22T13:28:30;100099.63;;;14.18;66.94
66681;BME280;53575;51.366;12.350;2023-02-22T13:31:06;100097.66;;;14.27;66.45
66681;BME280;53575;51.366;12.350;2023-02-22T13:42:45;100083.63;;;14.62;64.00
66681;BME280;53575;51.366;12.350;2023-02-22T13:50:42;100094.97;;;14.29;65.37
66681;BME280;53575;51.366;12.350;2023-02-22T13:53:19;100090.88;;;14.17;65.91
66681;BME280;53575;51.366;12.350;2023-02-22T13:55:52;100088.38;;;14.12;65.85
66681;BME280;53575;51.366;12.350;2023-02-22T13:58:21;100092.66;;;14.17;65.54
66681;BME280;53575;51.366;12.350;2023-02-22T14:00:48;100088.50;;;14.06;66.04
66681;BME280;53575;51.366;12.350;2023-02-22T14:16:27;100080.19;;;13.89;67.26
66681;BME280;53575;51.366;12.350;2023-02-22T14:19:02;100078.66;;;14.14;66.44
66681;BME280;53575;51.366;12.350;2023-02-22T14:21:31;100073.19;;;14.24;65.99
66681;BME280;53575;51.366;12.350;2023-02-22T14:24:08;100074.06;;;14.23;66.43
66681;BME280;53575;51.366;12.350;2023-02-22T14:26:40;100064.63;;;14.15;66.66
66681;BME280;53575;51.366;12.350;2023-02-22T14:29:17;100064.47;;;14.22;66.11
66681;BME280;53575;51.366;12.350;2023-02-22T14:34:18;100066.75;;;14.01;66.73
66681;BME280;53575;51.366;12.350;2023-02-22T14:37:03;100065.34;;;13.85;67.04
66681;BME280;53575;51.366;12.350;2023-02-22T14:39:35;100059.16;;;13.89;67.46
66681;BME280;53575;51.366;12.350;2023-02-22T14:42:13;100055.38;;;14.01;66.95
66681;BME280;53575;51.366;12.350;2023-02-22T14:47:17;100045.75;;;14.00;66.72
66681;BME280;53575;51.366;12.350;2023-02-22T14:49:48;100043.69;;;14.12;66.39